createdAt,value
2023-05-22T00:01:49.946Z,83.88
2023-05-22T00:03:24.440Z,83.99
2023-05-22T00:04:58.812Z,84.30
2023-05-22T00:06:30.611Z,84.02
2023-05-22T00:08:02.460Z,84.75
2023-05-22T00:09:34.055Z,84.76
2023-05-22T00:11:05.871Z,84.81
2023-05-22T00:12:37.696Z,84.73
2023-05-22T00:14:09.631Z,85.15
2023-05-22T00:15:41.375Z,84.96
2023-05-22T00:17:15.088Z,85.01
2023-05-22T00:18:47.566Z,85.32
2023-05-22T00:20:19.470Z,85.22
2023-05-22T00:21:51.407Z,85.74
2023-05-22T00:23:23.671Z,85.30
2023-05-22T00:24:55.257Z,85.14
2023-05-22T00:26:27.188Z,85.35
2023-05-22T00:27:58.814Z,85.25
2023-05-22T00:29:31.199Z,85.50
2023-05-22T00:31:03.226Z,86.03
2023-05-22T00:32:35.066Z,85.64
2023-05-22T00:34:06.840Z,85.85
2023-05-22T00:35:38.610Z,86.36
2023-05-22T00:37:10.860Z,85.91
2023-05-22T00:38:42.498Z,86.24
2023-05-22T00:40:18.136Z,85.86
2023-05-22T00:41:49.891Z,85.95
2023-05-22T00:43:21.630Z,86.06
2023-05-22T00:44:53.372Z,85.91
2023-05-22T00:46:25.169Z,86.04
2023-05-22T00:47:56.941Z,86.17
2023-05-22T00:49:28.602Z,85.35
2023-05-22T00:51:00.785Z,85.18
2023-05-22T00:52:33.425Z,85.74
2023-05-22T00:54:06.141Z,85.50
2023-05-22T00:55:37.858Z,85.73
2023-05-22T00:57:09.606Z,85.72
2023-05-22T00:58:42.199Z,86.14
2023-05-22T01:00:15.442Z,85.64
2023-05-22T01:01:47.851Z,85.43
2023-05-22T01:03:25.755Z,85.13
2023-05-22T01:04:58.059Z,85.60
2023-05-22T01:06:32.188Z,85.83
2023-05-22T01:08:06.202Z,85.94
2023-05-22T01:09:38.233Z,85.62
2023-05-22T01:11:23.112Z,85.66
2023-05-22T01:13:19.432Z,85.88
2023-05-22T01:15:04.200Z,86.37
2023-05-22T01:16:49.042Z,86.70
2023-05-22T01:18:29.392Z,86.72
2023-05-22T01:20:12.042Z,86.38
2023-05-22T01:21:54.592Z,86.24
2023-05-22T01:24:03.737Z,86.41
2023-05-22T01:25:35.322Z,86.32
2023-05-22T01:27:25.769Z,86.74
2023-05-22T01:29:46.236Z,86.59
2023-05-22T01:31:19.838Z,86.56
2023-05-22T01:32:57.421Z,87.19
2023-05-22T01:34:30.650Z,86.65
2023-05-22T01:36:03.935Z,87.00
2023-05-22T01:37:36.602Z,87.42
2023-05-22T01:39:09.116Z,86.93
2023-05-22T01:40:40.932Z,87.35
2023-05-22T01:42:13.049Z,87.30
2023-05-22T01:43:46.409Z,87.14
2023-05-22T01:45:18.068Z,87.22
2023-05-22T01:46:50.157Z,87.03
2023-05-22T01:48:21.725Z,87.12
2023-05-22T01:49:53.640Z,87.72
2023-05-22T01:51:40.432Z,87.37
2023-05-22T01:53:15.511Z,86.92
2023-05-22T01:54:53.680Z,87.83
2023-05-22T01:56:46.494Z,87.80
2023-05-22T01:58:56.958Z,87.75
2023-05-22T02:00:30.084Z,87.08
2023-05-22T02:02:06.763Z,87.23
2023-05-22T02:03:40.177Z,87.17
2023-05-22T02:05:13.685Z,87.13
2023-05-22T02:06:47.247Z,86.91
2023-05-22T02:08:21.031Z,86.92
2023-05-22T02:09:55.638Z,86.58
2023-05-22T02:11:30.604Z,86.71
2023-05-22T02:13:02.495Z,87.39
2023-05-22T02:14:35.056Z,86.72
2023-05-22T02:16:07.237Z,86.65
2023-05-22T02:17:40.405Z,87.21
2023-05-22T02:19:15.402Z,87.73
2023-05-22T02:20:47.405Z,87.81
2023-05-22T02:22:19.189Z,87.45
2023-05-22T02:23:51.151Z,87.47
2023-05-22T02:25:23.160Z,87.67
2023-05-22T02:26:55.176Z,87.90
2023-05-22T02:28:27.370Z,88.11
2023-05-22T02:29:59.010Z,88.83
2023-05-22T02:31:30.779Z,89.41
2023-05-22T02:33:05.911Z,88.73
2023-05-22T02:34:38.054Z,89.09
2023-05-22T02:36:10.936Z,89.23
2023-05-22T02:37:42.627Z,88.98
2023-05-22T02:39:14.413Z,88.11
2023-05-22T02:40:47.123Z,87.70
2023-05-22T02:42:19.549Z,87.83
2023-05-22T02:43:51.385Z,87.68
2023-05-22T02:45:23.008Z,87.68
2023-05-22T02:46:55.772Z,87.25
2023-05-22T02:48:29.373Z,87.24
2023-05-22T02:50:01.130Z,86.73
2023-05-22T02:51:32.840Z,87.02
2023-05-22T02:53:04.494Z,87.70
2023-05-22T02:54:36.190Z,87.92
2023-05-22T02:56:10.771Z,87.59
2023-05-22T02:57:43.079Z,87.94
2023-05-22T02:59:14.802Z,87.72
2023-05-22T03:00:46.857Z,88.18
2023-05-22T03:02:19.884Z,88.54
2023-05-22T03:03:55.159Z,88.46
2023-05-22T03:05:27.129Z,88.61
2023-05-22T03:06:59.125Z,87.54
2023-05-22T03:08:31.713Z,87.52
2023-05-22T03:10:03.503Z,87.76
2023-05-22T03:11:35.143Z,87.32
2023-05-22T03:13:06.841Z,88.50
2023-05-22T03:14:38.956Z,88.45
2023-05-22T03:16:10.777Z,88.68
2023-05-22T03:17:47.415Z,88.18
2023-05-22T03:19:19.786Z,88.68
2023-05-22T03:20:51.410Z,87.86
2023-05-22T03:22:23.192Z,87.88
2023-05-22T03:23:55.173Z,87.71
2023-05-22T03:25:26.984Z,88.09
2023-05-22T03:27:00.132Z,87.85
2023-05-22T03:28:44.704Z,87.89
2023-05-22T03:30:16.594Z,87.49
2023-05-22T03:31:58.006Z,87.25
2023-05-22T03:33:30.332Z,86.99
2023-05-22T03:35:02.005Z,87.11
2023-05-22T03:36:36.560Z,87.63
2023-05-22T03:38:08.218Z,87.94
2023-05-22T03:39:40.044Z,87.74
2023-05-22T03:41:22.295Z,88.12
2023-05-22T03:42:54.046Z,88.25
2023-05-22T03:44:26.145Z,87.93
2023-05-22T03:45:59.365Z,88.19
2023-05-22T03:47:31.504Z,88.20
2023-05-22T03:49:03.220Z,87.93
2023-05-22T03:50:34.923Z,87.72
2023-05-22T03:52:06.722Z,87.76
2023-05-22T03:53:38.402Z,88.05
2023-05-22T03:55:10.111Z,88.14
2023-05-22T03:56:41.783Z,87.90
2023-05-22T03:58:13.477Z,88.01
2023-05-22T03:59:46.439Z,88.59
2023-05-22T04:01:18.245Z,88.90
2023-05-22T04:02:50.472Z,88.82
2023-05-22T04:04:22.169Z,88.56
2023-05-22T04:05:56.883Z,88.95
2023-05-22T04:07:28.599Z,88.89
2023-05-22T04:09:01.129Z,88.71
2023-05-22T04:10:32.794Z,89.56
2023-05-22T04:12:04.738Z,89.51
2023-05-22T04:13:36.364Z,89.49
2023-05-22T04:15:09.195Z,89.26
2023-05-22T04:16:40.907Z,89.28
2023-05-22T04:18:13.008Z,88.70
2023-05-22T04:19:46.316Z,88.90
2023-05-22T04:21:19.051Z,88.48
2023-05-22T04:22:50.737Z,88.80
2023-05-22T04:24:23.164Z,88.67
2023-05-22T04:25:55.463Z,88.12
2023-05-22T04:27:29.784Z,88.36
2023-05-22T04:29:02.331Z,87.85
2023-05-22T04:30:34.168Z,87.78
2023-05-22T04:32:10.572Z,87.47
2023-05-22T04:33:42.813Z,87.82
2023-05-22T04:35:18.261Z,87.35
2023-05-22T04:36:49.947Z,87.11
2023-05-22T04:38:26.235Z,86.58
2023-05-22T04:40:02.831Z,86.58
2023-05-22T04:41:34.510Z,86.61
2023-05-22T04:43:06.298Z,86.67
2023-05-22T04:44:38.301Z,86.23
2023-05-22T04:46:10.053Z,85.71
2023-05-22T04:47:42.717Z,85.89
2023-05-22T04:49:14.607Z,85.80
2023-05-22T04:50:46.429Z,86.00
2023-05-22T04:52:18.272Z,85.59
2023-05-22T04:53:51.925Z,85.88
2023-05-22T04:55:23.573Z,85.94
2023-05-22T04:56:55.202Z,85.75
2023-05-22T04:58:27.463Z,86.08
2023-05-22T04:59:59.108Z,86.33
2023-05-22T05:01:32.914Z,86.05
2023-05-22T05:03:07.953Z,86.24
2023-05-22T05:04:39.823Z,86.65
2023-05-22T05:06:12.590Z,86.12
2023-05-22T05:07:44.601Z,85.46
2023-05-22T05:09:16.289Z,85.71
2023-05-22T05:10:47.976Z,86.25
2023-05-22T05:12:19.609Z,85.66
2023-05-22T05:13:51.519Z,84.51
2023-05-22T05:15:23.969Z,85.09
2023-05-22T05:16:57.117Z,84.39
2023-05-22T05:18:28.947Z,83.79
2023-05-22T05:20:01.181Z,84.00
2023-05-22T05:21:32.878Z,83.81
2023-05-22T05:23:05.856Z,83.84
2023-05-22T05:24:37.876Z,84.28
2023-05-22T05:26:09.768Z,84.25
2023-05-22T05:27:41.466Z,83.68
2023-05-22T05:29:14.011Z,83.88
2023-05-22T05:30:52.923Z,84.53
2023-05-22T05:32:47.607Z,83.96
2023-05-22T05:34:31.408Z,84.62
2023-05-22T05:36:10.917Z,84.63
2023-05-22T05:37:43.459Z,84.71
2023-05-22T05:39:16.019Z,85.09
2023-05-22T05:40:48.723Z,85.05
2023-05-22T05:42:21.189Z,84.70
2023-05-22T05:43:57.283Z,84.93
2023-05-22T05:45:30.260Z,84.94
2023-05-22T05:47:02.631Z,84.40
2023-05-22T05:48:34.533Z,84.06
2023-05-22T05:50:07.188Z,84.23
2023-05-22T05:51:40.162Z,84.14
2023-05-22T05:53:12.597Z,84.13
2023-05-22T05:54:48.114Z,84.11
2023-05-22T05:56:24.188Z,84.00
2023-05-22T05:57:56.199Z,84.08
2023-05-22T05:59:44.286Z,84.32
2023-05-22T06:01:48.594Z,83.78
2023-05-22T06:03:27.267Z,83.01
2023-05-22T06:05:26.909Z,82.95
2023-05-22T06:07:06.066Z,82.64
2023-05-22T06:08:43.944Z,81.78
2023-05-22T06:10:15.833Z,81.64
2023-05-22T06:12:12.419Z,81.51
2023-05-22T06:13:45.202Z,80.95
2023-05-22T06:15:17.920Z,80.75
2023-05-22T06:16:49.611Z,80.81
2023-05-22T06:18:21.825Z,80.88
2023-05-22T06:19:53.520Z,81.20
2023-05-22T06:21:26.108Z,80.21
2023-05-22T06:22:57.894Z,79.96
2023-05-22T06:24:29.642Z,80.45
2023-05-22T06:26:01.504Z,80.37
2023-05-22T06:27:33.640Z,79.61
2023-05-22T06:29:06.458Z,79.81
2023-05-22T06:30:40.544Z,78.12
2023-05-22T06:32:17.784Z,77.90
2023-05-22T06:33:51.473Z,77.62
2023-05-22T06:35:23.269Z,77.41
2023-05-22T06:36:54.973Z,77.81
2023-05-22T06:38:31.495Z,77.34
2023-05-22T06:40:03.850Z,77.01
2023-05-22T06:41:45.589Z,77.08
2023-05-22T06:43:18.757Z,76.55
2023-05-22T06:45:00.354Z,76.57
2023-05-22T06:46:40.641Z,77.07
2023-05-22T06:48:12.572Z,77.11
2023-05-22T06:49:56.970Z,75.84
2023-05-22T06:51:29.434Z,76.11
2023-05-22T06:53:07.937Z,75.26
2023-05-22T06:54:42.974Z,74.69
2023-05-22T06:56:17.530Z,75.05
2023-05-22T06:58:02.244Z,75.21
2023-05-22T06:59:34.623Z,75.36
2023-05-22T07:01:12.274Z,74.97
2023-05-22T07:02:51.698Z,74.53
2023-05-22T07:04:29.469Z,73.50
2023-05-22T07:06:04.819Z,73.58
2023-05-22T07:07:37.175Z,72.94
2023-05-22T07:09:10.934Z,72.83
2023-05-22T07:10:43.084Z,72.83
2023-05-22T07:12:14.829Z,73.12
2023-05-22T07:13:47.004Z,73.66
2023-05-22T07:15:18.920Z,74.24
2023-05-22T07:16:56.268Z,73.95
2023-05-22T07:18:32.875Z,73.51
2023-05-22T07:20:05.411Z,72.73
2023-05-22T07:21:38.877Z,72.12
2023-05-22T07:23:11.615Z,72.30
2023-05-22T07:24:43.819Z,71.13
2023-05-22T07:26:16.250Z,70.29
2023-05-22T07:27:55.777Z,70.23
2023-05-22T07:29:27.793Z,70.04
2023-05-22T07:31:00.345Z,68.11
2023-05-22T07:32:32.358Z,68.18
2023-05-22T07:34:06.982Z,67.64
2023-05-22T07:35:39.833Z,66.75
2023-05-22T07:37:14.069Z,66.82
2023-05-22T07:38:46.930Z,66.14
2023-05-22T07:40:19.364Z,64.55
2023-05-22T07:41:51.345Z,64.27
2023-05-22T07:43:24.768Z,63.97
2023-05-22T07:44:56.585Z,63.29
2023-05-22T07:46:28.844Z,62.70
2023-05-22T07:48:12.205Z,62.13
2023-05-22T07:49:43.879Z,61.55
2023-05-22T07:51:15.953Z,61.30
2023-05-22T07:52:48.187Z,60.76
2023-05-22T07:54:20.170Z,61.13
2023-05-22T07:55:55.349Z,61.16
2023-05-22T07:57:27.308Z,61.67
2023-05-22T07:59:01.194Z,62.27
2023-05-22T08:00:32.763Z,61.58
2023-05-22T08:02:04.476Z,59.81
2023-05-22T08:03:36.552Z,59.81
2023-05-22T08:05:09.443Z,58.60
2023-05-22T08:06:41.617Z,58.63
2023-05-22T08:08:13.240Z,58.79
2023-05-22T08:09:46.725Z,58.80
2023-05-22T08:11:18.720Z,59.88
2023-05-22T08:12:50.423Z,58.29
2023-05-22T08:14:22.471Z,59.00
2023-05-22T08:16:00.682Z,60.81
2023-05-22T08:17:32.993Z,61.74
2023-05-22T08:19:07.079Z,62.14
2023-05-22T08:20:39.016Z,61.97
2023-05-22T08:22:10.914Z,61.22
2023-05-22T08:23:42.548Z,61.19
2023-05-22T08:25:14.167Z,60.94
2023-05-22T08:26:45.773Z,61.07
2023-05-22T08:28:17.672Z,60.85
2023-05-22T08:29:49.364Z,60.89
2023-05-22T08:31:21.156Z,60.99
2023-05-22T08:32:52.827Z,60.93
2023-05-22T08:34:25.162Z,60.04
2023-05-22T08:35:56.773Z,59.65
2023-05-22T08:37:28.395Z,59.78
2023-05-22T08:39:01.342Z,59.65
2023-05-22T08:55:05.095Z,55.70
2023-05-22T08:56:39.838Z,54.73
2023-05-22T08:58:18.374Z,55.21
2023-05-22T08:59:50.712Z,54.35
2023-05-22T09:01:22.904Z,55.34
2023-05-22T09:02:55.833Z,55.28
2023-05-22T09:04:28.642Z,54.37
2023-05-22T09:06:01.673Z,54.70
2023-05-22T09:07:33.340Z,53.75
2023-05-22T09:09:04.997Z,54.77
2023-05-22T09:10:36.766Z,55.20
2023-05-22T09:12:09.829Z,54.83
2023-05-22T09:13:41.682Z,54.59
2023-05-22T09:15:13.888Z,54.37
2023-05-22T09:16:46.497Z,54.00
2023-05-22T09:18:18.302Z,53.50
2023-05-22T09:19:49.958Z,53.42
2023-05-22T09:21:30.258Z,53.55
2023-05-22T09:23:10.398Z,53.08
2023-05-22T09:24:44.215Z,54.04
2023-05-22T09:26:16.105Z,55.07
2023-05-22T09:27:50.676Z,54.15
2023-05-22T09:29:22.507Z,55.25
2023-05-22T09:30:55.266Z,54.42
2023-05-22T09:32:29.384Z,55.27
2023-05-22T09:34:01.038Z,54.53
2023-05-22T09:35:32.890Z,54.49
2023-05-22T09:37:05.645Z,55.06
2023-05-22T09:38:37.623Z,55.17
2023-05-22T09:40:13.728Z,54.64
2023-05-22T09:41:45.583Z,52.44
2023-05-22T09:43:18.085Z,52.87
2023-05-22T09:44:49.866Z,53.67
2023-05-22T09:46:22.027Z,53.48
2023-05-22T09:47:53.764Z,53.45
2023-05-22T09:49:25.425Z,52.84
2023-05-22T09:50:59.772Z,53.10
2023-05-22T09:52:35.687Z,52.45
2023-05-22T09:54:09.618Z,52.81
2023-05-22T09:55:41.624Z,51.33
2023-05-22T09:57:17.109Z,50.89
2023-05-22T09:58:48.958Z,51.36
2023-05-22T10:00:23.494Z,50.33
2023-05-22T10:01:55.793Z,49.89
2023-05-22T10:03:27.854Z,49.52
2023-05-22T10:05:00.642Z,49.89
2023-05-22T10:06:34.263Z,49.47
2023-05-22T10:08:10.926Z,50.02
2023-05-22T10:09:43.335Z,50.45
2023-05-22T10:11:15.615Z,49.47
2023-05-22T10:12:56.344Z,49.10
2023-05-22T10:14:30.827Z,49.36
2023-05-22T10:16:04.574Z,49.41
2023-05-22T10:17:38.130Z,48.84
2023-05-22T10:19:11.642Z,49.27
2023-05-22T10:20:43.912Z,49.10
2023-05-22T10:22:20.843Z,49.16
2023-05-22T10:23:54.936Z,49.67
2023-05-22T10:25:26.952Z,50.16
2023-05-22T10:26:59.401Z,49.31
2023-05-22T10:28:38.588Z,50.34
2023-05-22T10:30:16.221Z,49.70
2023-05-22T10:32:03.611Z,48.92
2023-05-22T10:33:54.145Z,48.14
2023-05-22T10:35:32.672Z,48.14
2023-05-22T10:37:28.826Z,48.43
2023-05-22T10:39:31.290Z,48.73
2023-05-22T10:41:07.023Z,49.18
2023-05-22T10:42:39.016Z,49.15
2023-05-22T10:44:10.656Z,50.66
2023-05-22T10:45:46.490Z,49.73
2023-05-22T10:47:18.268Z,49.31
2023-05-22T10:48:54.124Z,48.67
2023-05-22T10:50:25.982Z,49.03
2023-05-22T10:51:58.279Z,48.97
2023-05-22T10:53:32.388Z,49.55
2023-05-22T10:55:09.278Z,48.81
2023-05-22T10:56:41.254Z,48.03
2023-05-22T10:58:13.705Z,48.59
2023-05-22T10:59:48.228Z,47.67
2023-05-22T11:01:21.203Z,48.20
2023-05-22T11:03:17.361Z,48.53
2023-05-22T11:04:49.925Z,48.54
2023-05-22T11:06:45.726Z,49.47
2023-05-22T11:08:26.751Z,48.25
2023-05-22T11:10:01.358Z,48.05
2023-05-22T11:11:33.037Z,47.27
2023-05-22T11:13:13.969Z,46.92
2023-05-22T11:14:54.323Z,47.21
2023-05-22T11:16:30.931Z,47.89
2023-05-22T11:18:03.416Z,46.01
2023-05-22T11:19:35.331Z,47.03
2023-05-22T11:21:10.056Z,45.44
2023-05-22T11:22:44.464Z,45.80
2023-05-22T11:24:18.127Z,45.17
2023-05-22T11:25:49.836Z,44.44
2023-05-22T11:27:21.817Z,44.99
2023-05-22T11:28:53.881Z,44.05
2023-05-22T11:30:28.348Z,44.67
2023-05-22T11:32:00.402Z,45.09
2023-05-22T11:33:32.306Z,45.14
2023-05-22T11:35:08.466Z,45.81
2023-05-22T11:36:40.225Z,45.83
2023-05-22T11:38:12.594Z,44.87
2023-05-22T11:39:49.594Z,42.46
2023-05-22T11:41:21.463Z,42.80
2023-05-22T11:42:54.009Z,41.99
2023-05-22T11:44:27.620Z,43.12
2023-05-22T11:46:07.864Z,42.97
2023-05-22T11:47:40.498Z,40.65
2023-05-22T11:49:13.193Z,40.71
2023-05-22T11:50:45.020Z,42.26
2023-05-22T11:52:17.389Z,40.83
2023-05-22T11:53:49.070Z,38.14
2023-05-22T11:55:20.760Z,37.19
2023-05-22T11:56:52.852Z,37.33
2023-05-22T11:58:28.553Z,40.22
2023-05-22T12:00:00.980Z,39.77
2023-05-22T12:01:32.644Z,37.92
2023-05-22T12:03:04.521Z,36.95
2023-05-22T12:04:37.899Z,37.11
2023-05-22T12:06:09.886Z,37.09
2023-05-22T12:07:41.834Z,37.36
2023-05-22T12:09:13.470Z,39.50
2023-05-22T12:10:50.854Z,36.43
2023-05-22T12:12:22.948Z,36.66
2023-05-22T12:14:04.661Z,37.26
2023-05-22T12:15:36.173Z,35.43
2023-05-22T12:17:07.945Z,36.42
2023-05-22T12:18:41.440Z,33.82
2023-05-22T12:20:14.562Z,35.28
2023-05-22T12:21:46.244Z,34.20
2023-05-22T12:23:25.098Z,33.50
2023-05-22T12:24:56.781Z,33.32
2023-05-22T12:26:28.505Z,31.80
2023-05-22T12:28:00.196Z,32.05
2023-05-22T12:29:31.895Z,33.63
2023-05-22T12:31:03.571Z,34.94
2023-05-22T12:32:35.197Z,34.76
2023-05-22T12:34:08.414Z,34.87
2023-05-22T12:35:40.124Z,36.04
2023-05-22T12:37:22.802Z,36.91
2023-05-22T12:38:58.071Z,36.59
2023-05-22T12:40:29.727Z,36.66
2023-05-22T12:42:01.355Z,37.67
2023-05-22T12:43:33.222Z,37.40
2023-05-22T12:45:06.128Z,37.93
2023-05-22T12:46:38.263Z,38.06
2023-05-22T12:48:10.123Z,38.58
2023-05-22T12:49:41.825Z,39.46
2023-05-22T12:51:13.723Z,38.55
2023-05-22T12:52:45.435Z,39.75
2023-05-22T12:54:17.103Z,39.28
2023-05-22T12:55:48.709Z,38.30
2023-05-22T12:57:20.391Z,38.43
2023-05-22T12:58:52.414Z,37.37
2023-05-22T13:00:24.041Z,38.76
2023-05-22T13:01:57.768Z,38.21
2023-05-22T13:03:29.560Z,37.32
2023-05-22T13:05:01.337Z,36.13
2023-05-22T13:06:33.070Z,35.83
2023-05-22T13:08:04.901Z,35.68
2023-05-22T13:09:36.566Z,35.45
2023-05-22T13:11:08.251Z,33.47
2023-05-22T13:12:40.035Z,31.66
2023-05-22T13:14:11.666Z,29.19
2023-05-22T13:15:43.566Z,29.24
2023-05-22T13:17:15.331Z,28.09
2023-05-22T13:20:47.112Z,28.42
2023-05-22T13:22:18.897Z,29.15
2023-05-22T13:23:50.478Z,33.96
2023-05-22T13:25:22.208Z,36.94
2023-05-22T13:26:53.818Z,39.52
2023-05-22T13:28:25.451Z,34.10
2023-05-22T13:29:57.085Z,37.13
2023-05-22T13:31:28.920Z,36.04
2023-05-22T13:33:00.643Z,35.82
2023-05-22T13:34:32.358Z,38.79
2023-05-22T13:36:04.603Z,39.93
2023-05-22T13:37:36.546Z,42.25
2023-05-22T13:39:08.378Z,43.53
2023-05-22T13:40:40.062Z,43.19
2023-05-22T13:42:11.839Z,43.74
2023-05-22T13:43:43.480Z,46.44
2023-05-22T13:45:15.272Z,48.08
2023-05-22T13:46:47.171Z,49.94
2023-05-22T13:48:19.760Z,50.65
2023-05-22T13:49:51.900Z,51.40
2023-05-22T13:51:23.510Z,53.11
2023-05-22T13:52:55.325Z,53.03
2023-05-22T13:54:27.641Z,53.61
2023-05-22T13:55:59.394Z,53.93
2023-05-22T13:57:31.013Z,53.61
2023-05-22T13:59:05.965Z,53.61
2023-05-22T14:00:38.836Z,53.32
2023-05-22T14:02:10.638Z,54.04
2023-05-22T14:03:42.304Z,52.86
2023-05-22T14:05:14.112Z,53.20
2023-05-22T14:06:46.103Z,55.62
2023-05-22T14:08:18.016Z,54.91
2023-05-22T14:09:49.812Z,54.82
2023-05-22T14:11:22.457Z,56.78
2023-05-22T14:12:54.882Z,57.44
2023-05-22T14:14:26.668Z,63.67
2023-05-22T14:15:58.480Z,68.38
2023-05-22T14:17:30.136Z,71.55
2023-05-22T14:19:02.146Z,72.35
2023-05-22T14:20:34.457Z,71.46
2023-05-22T14:22:06.187Z,70.54
2023-05-22T14:23:37.892Z,67.53
2023-05-22T14:25:09.806Z,68.41
2023-05-22T14:26:41.975Z,75.58
2023-05-22T14:28:14.160Z,79.56
2023-05-22T14:29:45.974Z,80.42
2023-05-22T14:31:17.764Z,82.34
2023-05-22T14:32:49.628Z,76.98
2023-05-22T14:34:21.377Z,77.12
2023-05-22T14:35:53.267Z,78.99
2023-05-22T14:37:25.073Z,81.67
2023-05-22T14:38:57.130Z,80.74
2023-05-22T14:40:29.077Z,80.31
2023-05-22T14:42:01.024Z,81.66
2023-05-22T14:43:33.484Z,79.36
2023-05-22T14:45:05.637Z,80.81
2023-05-22T14:46:37.415Z,82.79
2023-05-22T14:48:11.056Z,82.67
2023-05-22T14:49:42.866Z,82.45
2023-05-22T14:51:14.508Z,83.29
2023-05-22T14:52:46.268Z,85.05
2023-05-22T14:54:19.199Z,80.39
2023-05-22T14:55:51.661Z,80.50
2023-05-22T14:57:23.380Z,81.08
2023-05-22T14:58:55.134Z,79.38
2023-05-22T15:00:26.906Z,79.46
2023-05-22T15:01:58.645Z,80.10
2023-05-22T15:03:31.053Z,80.63
2023-05-22T15:05:02.789Z,81.86
2023-05-22T15:06:34.918Z,82.92
2023-05-22T15:08:06.810Z,84.69
2023-05-22T15:09:38.602Z,85.50
2023-05-22T15:11:10.470Z,86.79
2023-05-22T15:12:42.239Z,86.59
2023-05-22T15:14:13.909Z,87.22
2023-05-22T15:15:45.758Z,87.47
2023-05-22T15:17:17.365Z,87.33
2023-05-22T15:18:49.200Z,85.90
2023-05-22T15:20:21.003Z,84.34
2023-05-22T15:21:54.598Z,82.29
2023-05-22T15:23:26.926Z,81.14
2023-05-22T15:25:09.129Z,80.33
2023-05-22T15:26:40.833Z,82.26
2023-05-22T15:28:12.515Z,83.68
2023-05-22T15:29:44.227Z,84.06
2023-05-22T15:31:16.161Z,85.27
2023-05-22T15:32:47.908Z,82.18
2023-05-22T15:34:19.667Z,83.95
2023-05-22T15:35:51.980Z,84.09
2023-05-22T15:37:23.870Z,84.81
2023-05-22T15:38:55.458Z,84.38
2023-05-22T15:40:27.249Z,84.55
2023-05-22T15:42:06.542Z,85.62
2023-05-22T15:43:38.727Z,85.57
2023-05-22T15:45:10.415Z,85.26
2023-05-22T15:46:42.043Z,85.17
2023-05-22T15:48:13.903Z,84.66
2023-05-22T15:49:45.868Z,84.55
2023-05-22T15:51:17.638Z,84.81
2023-05-22T15:52:49.250Z,86.06
2023-05-22T15:54:20.956Z,86.91
2023-05-22T15:55:52.625Z,86.97
2023-05-22T15:57:26.499Z,87.63
2023-05-22T15:58:58.161Z,87.87
2023-05-22T16:00:29.760Z,85.28
2023-05-22T16:02:01.429Z,83.39
2023-05-22T16:03:33.318Z,84.69
2023-05-22T16:05:05.548Z,83.94
2023-05-22T16:06:37.357Z,84.09
2023-05-22T16:08:12.262Z,85.78
2023-05-22T16:09:44.325Z,84.56
2023-05-22T16:11:16.269Z,81.59
2023-05-22T16:12:48.086Z,81.80
2023-05-22T16:14:19.879Z,84.17
2023-05-22T16:15:51.488Z,84.45
2023-05-22T16:17:23.185Z,84.07
2023-05-22T16:18:54.930Z,84.03
2023-05-22T16:20:26.889Z,83.76
2023-05-22T16:21:59.603Z,81.92
2023-05-22T16:23:31.277Z,81.68
2023-05-22T16:25:02.972Z,82.13
2023-05-22T16:26:37.535Z,82.63
2023-05-22T16:28:10.985Z,82.48
2023-05-22T16:29:42.701Z,83.05
2023-05-22T16:31:18.971Z,85.41
2023-05-22T16:32:51.096Z,84.74
2023-05-22T16:34:22.825Z,84.87
2023-05-22T16:35:54.436Z,83.60
2023-05-22T16:37:26.264Z,84.55
2023-05-22T16:38:58.033Z,83.67
2023-05-22T16:40:29.749Z,84.23
2023-05-22T16:42:01.566Z,83.98
2023-05-22T16:43:33.198Z,83.99
2023-05-22T16:45:06.205Z,83.90
2023-05-22T16:46:37.978Z,84.60
2023-05-22T16:48:09.703Z,84.53
2023-05-22T16:49:41.420Z,83.01
2023-05-22T16:51:13.147Z,82.90
2023-05-22T16:52:44.770Z,83.98
2023-05-22T16:54:16.533Z,84.24
2023-05-22T16:55:48.230Z,85.43
2023-05-22T16:57:19.970Z,83.88
2023-05-22T16:58:51.750Z,85.40
2023-05-22T17:00:23.617Z,84.22
2023-05-22T17:01:55.447Z,83.83
2023-05-22T17:03:27.314Z,83.76
2023-05-22T17:04:59.261Z,83.29
2023-05-22T17:06:31.831Z,84.01
2023-05-22T17:08:03.726Z,81.84
2023-05-22T17:09:35.478Z,84.85
2023-05-22T17:11:07.180Z,83.36
2023-05-22T17:12:38.799Z,83.28
2023-05-22T17:14:11.229Z,82.59
2023-05-22T17:15:42.903Z,83.83
2023-05-22T17:17:14.661Z,84.08
2023-05-22T17:18:46.418Z,83.94
2023-05-22T17:20:18.920Z,85.09
2023-05-22T17:21:50.668Z,85.10
2023-05-22T17:23:22.358Z,84.35
2023-05-22T17:24:53.979Z,84.92
2023-05-22T17:26:27.734Z,85.29
2023-05-22T17:27:59.398Z,85.43
2023-05-22T17:29:31.066Z,84.68
2023-05-22T17:31:02.887Z,84.55
2023-05-22T17:32:35.567Z,84.33
2023-05-22T17:34:07.414Z,85.03
2023-05-22T17:35:39.246Z,86.09
2023-05-22T17:37:10.943Z,85.93
2023-05-22T17:38:42.648Z,85.81
2023-05-22T17:40:14.434Z,86.14
2023-05-22T17:41:46.151Z,87.02
2023-05-22T17:43:19.171Z,86.87
2023-05-22T17:44:50.898Z,85.95
2023-05-22T17:46:22.993Z,85.53
2023-05-22T17:47:54.845Z,86.18
2023-05-22T17:49:26.482Z,86.08
2023-05-22T17:50:59.477Z,86.68
2023-05-22T17:52:31.302Z,86.90
2023-05-22T17:54:03.966Z,87.32
2023-05-22T17:55:36.105Z,87.05
2023-05-22T17:57:08.020Z,86.59
2023-05-22T17:58:39.688Z,88.45
2023-05-22T18:00:12.032Z,87.56
2023-05-22T18:01:44.134Z,86.39
2023-05-22T18:03:20.181Z,85.66
2023-05-22T18:04:52.189Z,87.71
2023-05-22T18:06:24.398Z,87.17
2023-05-22T18:07:56.228Z,86.40
2023-05-22T18:09:27.895Z,87.77
2023-05-22T18:10:59.645Z,85.91
2023-05-22T18:12:32.273Z,86.60
2023-05-22T18:14:04.510Z,87.98
2023-05-22T18:15:36.367Z,87.50
2023-05-22T18:17:08.142Z,88.13
2023-05-22T18:18:39.805Z,86.96
2023-05-22T18:20:16.692Z,87.13
2023-05-22T18:21:48.382Z,86.93
2023-05-22T18:23:20.948Z,86.92
2023-05-22T18:24:52.673Z,87.06
2023-05-22T18:26:24.363Z,86.41
2023-05-22T18:27:56.036Z,87.16
2023-05-22T18:29:27.669Z,87.87
2023-05-22T18:30:59.429Z,88.55
2023-05-22T18:32:31.595Z,88.75
2023-05-22T18:34:03.539Z,89.47
2023-05-22T18:35:35.218Z,89.58
2023-05-22T18:37:06.893Z,89.19
2023-05-22T18:38:38.627Z,90.38
2023-05-22T18:40:11.485Z,89.79
2023-05-22T18:41:43.211Z,89.89
2023-05-22T18:43:14.972Z,90.20
2023-05-22T18:44:48.840Z,90.43
2023-05-22T18:46:20.879Z,89.94
2023-05-22T18:47:52.689Z,88.62
2023-05-22T18:49:24.537Z,89.41
2023-05-22T18:50:57.782Z,89.16
2023-05-22T18:52:29.895Z,90.28
2023-05-22T18:54:01.594Z,89.99
2023-05-22T18:55:33.621Z,90.33
2023-05-22T18:57:05.491Z,89.75
2023-05-22T18:58:41.362Z,90.01
2023-05-22T19:00:13.223Z,89.73
2023-05-22T19:01:45.513Z,89.93
2023-05-22T19:03:17.226Z,90.44
2023-05-22T19:04:50.630Z,90.58
2023-05-22T19:06:23.144Z,90.93
2023-05-22T19:07:55.016Z,91.13
2023-05-22T19:09:26.638Z,91.17
2023-05-22T19:11:01.408Z,91.06
2023-05-22T19:12:33.310Z,90.79
2023-05-22T19:14:05.138Z,90.85
2023-05-22T19:15:37.649Z,90.33
2023-05-22T19:17:09.968Z,90.44
2023-05-22T19:18:41.844Z,91.55
2023-05-22T19:20:13.784Z,90.80
2023-05-22T19:21:45.453Z,90.34
2023-05-22T19:23:17.111Z,90.30
2023-05-22T19:24:48.795Z,90.62
2023-05-22T19:26:20.390Z,90.38
2023-05-22T19:27:52.355Z,90.53
2023-05-22T19:29:24.069Z,91.29
2023-05-22T19:30:58.215Z,92.35
2023-05-22T19:32:29.972Z,92.21
2023-05-22T19:34:01.752Z,92.47
2023-05-22T19:35:33.382Z,93.18
2023-05-22T19:37:05.277Z,92.82
2023-05-22T19:38:37.048Z,92.60
2023-05-22T19:40:12.383Z,93.31
2023-05-22T19:41:44.054Z,93.02
2023-05-22T19:43:15.771Z,92.82
2023-05-22T19:44:47.699Z,93.13
2023-05-22T19:46:19.455Z,93.33
2023-05-22T19:47:51.201Z,93.20
2023-05-22T19:49:22.882Z,93.88
2023-05-22T19:50:54.564Z,94.20
2023-05-22T19:52:29.107Z,94.26
2023-05-22T19:54:00.794Z,94.64
2023-05-22T19:55:32.677Z,94.26
2023-05-22T19:57:04.489Z,95.12
2023-05-22T19:58:36.208Z,95.44
2023-05-22T20:00:11.019Z,95.35
2023-05-22T20:01:42.785Z,94.74
2023-05-22T20:03:14.992Z,94.58
2023-05-22T20:04:48.394Z,93.95
2023-05-22T20:06:20.160Z,93.60
2023-05-22T20:07:51.834Z,93.62
2023-05-22T20:09:23.498Z,94.08
2023-05-22T20:10:55.226Z,93.63
2023-05-22T20:12:26.899Z,93.55
2023-05-22T20:13:58.587Z,93.55
2023-05-22T20:15:31.095Z,93.71
2023-05-22T20:17:03.012Z,93.79
2023-05-22T20:18:34.752Z,93.75
2023-05-22T20:20:07.878Z,93.64
2023-05-22T20:21:39.660Z,93.94